createdAt,value
2018-02-22T00:02:10.199Z,38.23
2018-02-22T00:04:38.817Z,39.80
2018-02-22T00:07:06.504Z,37.90
2018-02-22T00:09:34.201Z,41.50
2018-02-22T00:12:02.782Z,37.53
2018-02-22T00:14:30.485Z,37.33
2018-02-22T00:16:58.145Z,38.50
2018-02-22T00:19:25.898Z,35.50
2018-02-22T00:21:53.538Z,35.67
2018-02-22T00:24:21.259Z,33.80
2018-02-22T00:26:48.921Z,35.90
2018-02-22T00:29:16.724Z,33.90
2018-02-22T00:31:45.143Z,32.60
2018-02-22T00:34:14.016Z,32.17
2018-02-22T00:36:41.852Z,34.93
2018-02-22T00:39:10.295Z,32.10
2018-02-22T00:41:37.968Z,31.80
2018-02-22T00:44:05.743Z,32.63
2018-02-22T00:46:33.505Z,33.97
2018-02-22T00:49:01.992Z,30.30
2018-02-22T00:51:30.500Z,29.63
2018-02-22T00:53:58.195Z,30.90
2018-02-22T00:56:25.940Z,30.30
2018-02-22T00:58:53.580Z,30.20
2018-02-22T01:01:21.348Z,29.00
2018-02-22T01:03:49.033Z,30.67
2018-02-22T01:06:16.784Z,29.20
2018-02-22T01:08:44.452Z,29.53
2018-02-22T01:11:12.123Z,29.43
2018-02-22T01:13:40.011Z,28.17
2018-02-22T01:16:07.769Z,31.10
2018-02-22T01:18:35.466Z,27.60
2018-02-22T01:21:03.119Z,29.50
2018-02-22T01:23:30.908Z,29.20
2018-02-22T01:25:58.629Z,27.00
2018-02-22T01:28:27.062Z,26.57
2018-02-22T01:30:54.776Z,27.40
2018-02-22T01:33:23.245Z,27.00
2018-02-22T01:35:51.641Z,27.33
2018-02-22T01:38:19.335Z,25.77
2018-02-22T01:40:47.006Z,26.07
2018-02-22T01:43:14.740Z,27.17
2018-02-22T01:45:42.441Z,26.67
2018-02-22T01:48:10.849Z,25.93
2018-02-22T01:50:39.315Z,25.30
2018-02-22T01:53:06.999Z,25.97
2018-02-22T01:55:34.679Z,25.77
2018-02-22T01:58:02.364Z,25.77
2018-02-22T02:00:30.062Z,24.93
2018-02-22T02:02:58.500Z,24.60
2018-02-22T02:05:26.172Z,24.87
2018-02-22T02:07:53.860Z,25.00
2018-02-22T02:10:22.322Z,24.07
2018-02-22T02:12:49.972Z,24.07
2018-02-22T02:15:17.656Z,24.90
2018-02-22T02:17:45.340Z,25.33
2018-02-22T02:20:13.822Z,25.10
2018-02-22T02:22:41.544Z,25.63
2018-02-22T02:25:09.211Z,25.13
2018-02-22T02:27:37.011Z,23.37
2018-02-22T02:30:04.733Z,24.37
2018-02-22T02:32:32.439Z,25.10
2018-02-22T02:35:00.077Z,22.30
2018-02-22T02:37:28.588Z,21.73
2018-02-22T02:39:56.247Z,22.93
2018-02-22T02:42:23.920Z,23.30
2018-02-22T02:44:51.608Z,22.83
2018-02-22T02:47:19.329Z,21.87
2018-02-22T02:49:47.042Z,24.70
2018-02-22T02:52:18.464Z,24.03
2018-02-22T02:54:46.304Z,23.27
2018-02-22T02:57:13.932Z,22.27
2018-02-22T02:59:42.369Z,23.07
2018-02-22T03:02:10.135Z,24.50
2018-02-22T03:04:37.813Z,23.20
2018-02-22T03:07:05.532Z,24.53
2018-02-22T03:09:33.187Z,24.07
2018-02-22T03:12:00.812Z,25.70
2018-02-22T03:14:29.246Z,23.60
2018-02-22T03:16:56.907Z,23.30
2018-02-22T03:19:24.752Z,25.47
2018-02-22T03:21:52.396Z,24.97
2018-02-22T03:24:20.061Z,25.37
2018-02-22T03:26:47.690Z,25.30
2018-02-22T03:29:15.372Z,26.87
2018-02-22T03:31:44.037Z,24.40
2018-02-22T03:34:12.514Z,26.30
2018-02-22T03:36:40.981Z,29.43
2018-02-22T03:39:08.645Z,30.00
2018-02-22T03:41:36.331Z,29.70
2018-02-22T03:44:05.048Z,30.93
2018-02-22T03:46:32.700Z,30.10
2018-02-22T03:49:00.323Z,28.93
2018-02-22T03:51:28.842Z,31.17
2018-02-22T03:53:56.561Z,31.63
2018-02-22T03:56:24.360Z,33.43
2018-02-22T03:58:52.008Z,33.03
2018-02-22T04:01:19.877Z,32.77
2018-02-22T04:03:47.585Z,31.47
2018-02-22T04:06:15.283Z,34.63
2018-02-22T04:08:43.697Z,32.47
2018-02-22T04:11:11.842Z,33.60
2018-02-22T04:13:39.544Z,32.40
2018-02-22T04:16:07.264Z,35.83
2018-02-22T04:18:35.696Z,33.33
2018-02-22T04:21:03.456Z,32.07
2018-02-22T04:23:31.224Z,33.23
2018-02-22T04:25:58.856Z,31.57
2018-02-22T04:28:26.576Z,33.77
2018-02-22T04:30:54.223Z,32.63
2018-02-22T04:33:22.831Z,34.30
2018-02-22T04:35:50.479Z,35.10
2018-02-22T04:38:18.986Z,32.33
2018-02-22T04:40:46.617Z,32.30
2018-02-22T04:43:15.065Z,34.73
2018-02-22T04:45:42.742Z,32.70
2018-02-22T04:48:10.863Z,34.57
2018-02-22T04:50:38.644Z,34.43
2018-02-22T04:53:06.414Z,33.70
2018-02-22T04:55:34.116Z,34.00
2018-02-22T04:58:02.580Z,34.47
2018-02-22T05:00:31.148Z,33.40
2018-02-22T05:02:58.795Z,34.93
2018-02-22T05:05:26.663Z,33.20
2018-02-22T05:07:54.314Z,32.20
2018-02-22T05:10:22.092Z,31.87
2018-02-22T05:12:49.758Z,33.60
2018-02-22T05:15:18.340Z,35.73
2018-02-22T05:17:46.109Z,31.70
2018-02-22T05:20:13.860Z,34.07
2018-02-22T05:22:41.540Z,31.97
2018-02-22T05:25:09.176Z,31.70
2018-02-22T05:27:36.859Z,32.73
2018-02-22T05:30:04.634Z,31.37
2018-02-22T05:32:33.131Z,34.40
2018-02-22T05:35:00.788Z,32.67
2018-02-22T05:37:28.775Z,31.90
2018-02-22T05:39:56.487Z,29.80
2018-02-22T05:42:24.199Z,30.07
2018-02-22T05:44:51.888Z,30.90
2018-02-22T05:47:19.562Z,32.37
2018-02-22T05:49:47.247Z,30.23
2018-02-22T05:52:15.874Z,31.43
2018-02-22T05:54:43.496Z,30.77
2018-02-22T05:57:12.068Z,30.03
2018-02-22T05:59:40.519Z,30.77
2018-02-22T06:02:08.176Z,30.60
2018-02-22T06:04:35.868Z,28.90
2018-02-22T06:07:04.405Z,28.33
2018-02-22T06:09:32.052Z,29.97
2018-02-22T06:12:00.684Z,28.93
2018-02-22T06:14:28.355Z,31.40
2018-02-22T06:16:56.876Z,30.30
2018-02-22T06:19:24.635Z,30.83
2018-02-22T06:21:52.296Z,28.00
2018-02-22T06:24:19.943Z,27.50
2018-02-22T06:26:47.622Z,29.47
2018-02-22T06:29:15.315Z,28.53
2018-02-22T06:31:42.992Z,27.77
2018-02-22T06:34:11.448Z,29.97
2018-02-22T06:36:39.121Z,27.43
2018-02-22T06:39:07.220Z,26.87
2018-02-22T06:41:34.908Z,27.37
2018-02-22T06:44:02.600Z,30.40
2018-02-22T06:46:30.259Z,27.97
2018-02-22T06:48:57.967Z,28.43
2018-02-22T06:51:25.672Z,28.47
2018-02-22T06:53:53.316Z,28.57
2018-02-22T06:56:21.039Z,29.33
2018-02-22T06:58:49.489Z,30.20
2018-02-22T07:01:17.220Z,29.00
2018-02-22T07:03:44.971Z,28.73
2018-02-22T07:06:12.668Z,27.57
2018-02-22T07:08:40.331Z,28.17
2018-02-22T07:11:08.013Z,29.83
2018-02-22T07:13:36.505Z,29.77
2018-02-22T07:16:04.930Z,27.77
2018-02-22T07:18:32.629Z,29.00
2018-02-22T07:21:01.092Z,27.20
2018-02-22T07:23:28.783Z,28.27
2018-02-22T07:25:57.278Z,28.10
2018-02-22T07:28:24.958Z,27.03
2018-02-22T07:30:52.653Z,28.57
2018-02-22T07:33:20.396Z,27.67
2018-02-22T07:35:48.068Z,27.93
2018-02-22T07:38:15.734Z,27.03
2018-02-22T07:40:43.421Z,27.20
2018-02-22T07:43:11.898Z,28.67
2018-02-22T07:45:39.620Z,27.93
2018-02-22T07:48:07.311Z,27.87
2018-02-22T07:50:35.767Z,25.60
2018-02-22T07:53:03.493Z,27.20
2018-02-22T07:55:31.223Z,26.50
2018-02-22T07:57:59.701Z,26.53
2018-02-22T08:00:28.174Z,27.67
2018-02-22T08:02:55.881Z,27.23
2018-02-22T08:05:23.564Z,25.40
2018-02-22T08:07:51.212Z,28.40
2018-02-22T08:10:18.910Z,27.13
2018-02-22T08:12:46.646Z,26.77
2018-02-22T08:15:14.353Z,27.53
2018-02-22T08:17:42.844Z,25.93
2018-02-22T08:20:10.584Z,26.33
2018-02-22T08:22:39.016Z,27.73
2018-02-22T08:25:06.692Z,28.70
2018-02-22T08:27:35.237Z,27.30
2018-02-22T08:30:03.491Z,27.00
2018-02-22T08:32:31.324Z,27.07
2018-02-22T08:34:59.153Z,28.27
2018-02-22T08:37:26.854Z,27.90
2018-02-22T08:39:54.594Z,28.50
2018-02-22T08:42:22.364Z,26.70
2018-02-22T08:44:50.075Z,28.10
2018-02-22T08:47:17.753Z,30.57
2018-02-22T08:49:45.652Z,27.93
2018-02-22T08:52:13.324Z,28.10
2018-02-22T08:54:41.806Z,28.07
2018-02-22T08:57:09.497Z,26.13
2018-02-22T08:59:37.988Z,25.70
2018-02-22T09:02:05.707Z,27.80
2018-02-22T09:04:33.458Z,27.70
2018-02-22T09:07:01.147Z,26.47
2018-02-22T09:09:29.616Z,25.67
2018-02-22T09:11:57.308Z,27.43
2018-02-22T09:14:25.747Z,27.97
2018-02-22T09:16:53.425Z,28.03
2018-02-22T09:19:21.883Z,27.47
2018-02-22T09:21:49.534Z,27.80
2018-02-22T09:24:17.461Z,28.00
2018-02-22T09:26:45.216Z,27.80
2018-02-22T09:29:12.961Z,25.83
2018-02-22T09:31:40.658Z,25.77
2018-02-22T09:34:08.439Z,27.23
2018-02-22T09:36:36.235Z,28.70
2018-02-22T09:39:03.993Z,26.97
2018-02-22T09:41:32.901Z,25.27
2018-02-22T09:44:01.345Z,25.60
2018-02-22T09:46:29.122Z,25.50
2018-02-22T09:48:56.797Z,25.93
2018-02-22T09:51:25.268Z,25.27
2018-02-22T09:53:52.939Z,24.00
2018-02-22T09:56:21.383Z,26.30
2018-02-22T09:58:49.040Z,24.57
2018-02-22T10:01:16.693Z,25.53
2018-02-22T10:03:44.534Z,25.63
2018-02-22T10:06:12.259Z,27.53
2018-02-22T10:08:39.919Z,27.03
2018-02-22T10:11:07.580Z,25.20
2018-02-22T10:13:35.348Z,26.03
2018-02-22T10:16:03.846Z,27.70
2018-02-22T10:18:31.535Z,25.00
2018-02-22T10:20:59.259Z,25.27
2018-02-22T10:23:27.688Z,25.30
2018-02-22T10:25:56.159Z,26.80
2018-02-22T10:28:24.603Z,25.50
2018-02-22T10:30:52.268Z,25.37
2018-02-22T10:33:19.942Z,26.93
2018-02-22T10:35:47.599Z,27.03
2018-02-22T10:38:15.274Z,29.63
2018-02-22T10:40:42.932Z,24.80
2018-02-22T10:43:10.569Z,24.63
2018-02-22T10:45:38.236Z,28.00
2018-02-22T10:48:05.919Z,24.93
2018-02-22T10:50:33.558Z,27.07
2018-02-22T10:53:01.334Z,27.10
2018-02-22T10:55:29.091Z,26.67
2018-02-22T10:57:56.822Z,24.80
2018-02-22T11:00:30.964Z,24.87
2018-02-22T11:02:58.643Z,25.77
2018-02-22T11:05:26.545Z,26.67
2018-02-22T11:07:54.243Z,28.40
2018-02-22T11:10:22.063Z,25.43
2018-02-22T11:12:49.916Z,26.70
2018-02-22T11:15:17.595Z,26.67
2018-02-22T11:17:45.455Z,27.10
2018-02-22T11:20:13.218Z,27.60
2018-02-22T11:22:40.921Z,27.30
2018-02-22T11:25:08.656Z,26.00
2018-02-22T11:27:37.091Z,27.20
2018-02-22T11:30:04.771Z,25.13
2018-02-22T11:32:32.432Z,27.20
2018-02-22T11:35:00.084Z,25.80
2018-02-22T11:37:27.734Z,25.87
2018-02-22T11:39:55.391Z,27.97
2018-02-22T11:42:23.029Z,27.23
2018-02-22T11:44:50.698Z,25.73
2018-02-22T11:47:18.371Z,27.17
2018-02-22T11:49:46.031Z,26.03
2018-02-22T11:52:13.696Z,25.53
2018-02-22T11:54:41.371Z,26.20
2018-02-22T11:57:09.010Z,26.07
2018-02-22T11:59:36.676Z,27.10
2018-02-22T12:02:04.341Z,27.27
2018-02-22T12:04:32.028Z,26.97
2018-02-22T12:06:59.691Z,27.53
2018-02-22T12:09:27.341Z,27.00
2018-02-22T12:11:55.092Z,26.57
2018-02-22T12:14:22.760Z,27.70
2018-02-22T12:16:50.482Z,28.57
2018-02-22T12:19:18.160Z,26.60
2018-02-22T12:21:45.818Z,30.00
2018-02-22T12:24:13.692Z,29.13
2018-02-22T12:26:41.399Z,27.77
2018-02-22T12:29:09.149Z,28.00
2018-02-22T12:31:37.668Z,28.30
2018-02-22T12:34:06.097Z,30.70
2018-02-22T12:36:33.849Z,27.00
2018-02-22T12:39:01.533Z,27.27
2018-02-22T12:41:29.936Z,28.60
2018-02-22T12:43:57.682Z,28.03
2018-02-22T12:46:26.132Z,28.40
2018-02-22T12:48:53.810Z,25.70
2018-02-22T12:51:21.576Z,27.00
2018-02-22T12:53:50.044Z,27.07
2018-02-22T12:56:17.709Z,29.10
2018-02-22T12:58:46.152Z,27.87
2018-02-22T13:01:13.878Z,27.33
2018-02-22T13:03:41.522Z,25.43
2018-02-22T13:06:09.944Z,27.27
2018-02-22T13:08:37.620Z,30.60
2018-02-22T13:11:05.272Z,26.67
2018-02-22T13:13:32.948Z,28.70
2018-02-22T13:16:00.680Z,28.10
2018-02-22T13:18:28.329Z,29.00
2018-02-22T13:20:56.014Z,26.80
2018-02-22T13:23:23.685Z,27.03
2018-02-22T13:25:51.325Z,26.27
2018-02-22T13:28:18.992Z,26.70
2018-02-22T13:30:46.692Z,26.00
2018-02-22T13:33:27.099Z,26.23
2018-02-22T13:35:54.757Z,26.43
2018-02-22T13:38:34.394Z,24.40
2018-02-22T13:41:02.061Z,26.50
2018-02-22T13:43:29.686Z,26.53
2018-02-22T13:45:58.127Z,26.73
2018-02-22T13:51:24.486Z,26.53
2018-02-22T13:53:52.180Z,25.60
2018-02-22T13:56:31.732Z,26.57
2018-02-22T13:58:59.400Z,26.00
2018-02-22T14:01:39.016Z,25.63
2018-02-22T14:04:07.545Z,26.90
2018-02-22T14:06:35.204Z,26.53
2018-02-22T14:09:02.900Z,26.33
2018-02-22T14:11:31.334Z,25.60
2018-02-22T14:13:58.972Z,26.07
2018-02-22T14:16:26.663Z,25.33
2018-02-22T14:18:54.348Z,25.73
2018-02-22T14:21:21.974Z,25.30
2018-02-22T14:23:49.653Z,26.20
2018-02-22T14:26:17.360Z,25.27
2018-02-22T14:28:45.012Z,26.13
2018-02-22T14:31:13.487Z,26.13
2018-02-22T14:33:42.005Z,27.80
2018-02-22T14:36:09.641Z,26.70
2018-02-22T14:38:37.355Z,24.57
2018-02-22T14:41:05.084Z,25.50
2018-02-22T14:43:32.713Z,23.70
2018-02-22T14:46:01.279Z,25.80
2018-02-22T14:48:28.951Z,23.00
2018-02-22T14:50:57.355Z,26.90
2018-02-22T14:53:25.029Z,26.10
2018-02-22T14:55:52.729Z,23.07
2018-02-22T14:58:20.363Z,21.07
2018-02-22T15:00:53.625Z,22.80
2018-02-22T15:03:21.287Z,22.53
2018-02-22T15:05:49.019Z,21.80
2018-02-22T15:08:17.496Z,22.80
2018-02-22T15:10:45.956Z,23.83
2018-02-22T15:13:13.602Z,23.50
2018-02-22T15:15:41.346Z,21.80
2018-02-22T15:18:09.060Z,22.43
2018-02-22T15:20:37.507Z,24.63
2018-02-22T15:23:06.016Z,24.07
2018-02-22T15:25:35.448Z,22.77
2018-02-22T15:28:03.100Z,22.43
2018-02-22T15:30:30.828Z,23.20
2018-02-22T15:32:58.501Z,22.77
2018-02-22T15:35:26.956Z,23.53
2018-02-22T15:37:54.627Z,22.50
2018-02-22T15:40:23.167Z,21.97
2018-02-22T15:42:57.354Z,23.90
2018-02-22T15:45:25.040Z,23.30
2018-02-22T15:47:52.742Z,23.40
2018-02-22T15:50:20.474Z,26.07
2018-02-22T15:52:48.148Z,25.43
2018-02-22T15:55:15.867Z,23.97
2018-02-22T15:57:43.558Z,23.37
2018-02-22T16:00:11.357Z,26.53
2018-02-22T16:02:39.021Z,23.53
2018-02-22T16:05:07.612Z,23.93
2018-02-22T16:07:36.060Z,24.87
2018-02-22T16:10:03.847Z,25.07
2018-02-22T16:12:32.348Z,24.30
2018-02-22T16:15:00.780Z,24.60
2018-02-22T16:17:31.527Z,24.57
2018-02-22T16:20:01.235Z,24.17
2018-02-22T16:22:28.953Z,24.13
2018-02-22T16:24:56.664Z,24.20
2018-02-22T16:27:24.915Z,26.30
2018-02-22T16:29:52.811Z,24.17
2018-02-22T16:32:21.272Z,25.67
2018-02-22T16:34:48.989Z,33.80
2018-02-22T16:37:16.808Z,36.13
2018-02-22T16:42:16.390Z,23.20
2018-02-22T16:44:45.049Z,22.83
2018-02-22T16:47:12.836Z,23.23
2018-02-22T16:49:40.537Z,24.27
2018-02-22T16:52:08.572Z,24.17
2018-02-22T16:54:36.246Z,28.23
2018-02-22T16:57:03.933Z,27.47
2018-02-22T16:59:31.689Z,26.07
2018-02-22T17:01:59.324Z,25.77
2018-02-22T17:04:27.029Z,27.70
2018-02-22T17:06:55.459Z,26.77
2018-02-22T17:09:23.172Z,24.83
2018-02-22T17:11:50.859Z,31.43
2018-02-22T17:14:18.576Z,27.23
2018-02-22T17:16:47.185Z,26.77
2018-02-22T17:19:14.863Z,23.70
2018-02-22T17:21:42.541Z,25.17
2018-02-22T17:24:10.680Z,27.00
2018-02-22T17:26:44.759Z,26.47
2018-02-22T17:29:19.846Z,26.77
2018-02-22T17:31:57.100Z,25.57
2018-02-22T17:34:25.857Z,24.03
2018-02-22T17:36:55.742Z,28.20
2018-02-22T17:39:29.558Z,26.23
2018-02-22T17:41:57.938Z,26.37
2018-02-22T17:44:25.696Z,25.00
2018-02-22T17:46:53.442Z,26.10
2018-02-22T17:49:21.212Z,27.20
2018-02-22T17:51:48.920Z,25.27
2018-02-22T17:54:18.031Z,24.80
2018-02-22T17:56:46.293Z,27.40
2018-02-22T17:59:14.569Z,25.47
2018-02-22T18:01:42.924Z,27.00
2018-02-22T18:04:11.307Z,28.30
2018-02-22T18:06:40.160Z,25.30
2018-02-22T18:09:08.703Z,28.20
2018-02-22T18:11:36.382Z,28.10
2018-02-22T18:14:04.495Z,31.07
2018-02-22T18:16:32.786Z,27.70
2018-02-22T18:19:00.803Z,26.40
2018-02-22T18:21:28.483Z,25.93
2018-02-22T18:23:56.132Z,29.07
2018-02-22T18:26:23.876Z,26.43
2018-02-22T18:28:52.565Z,27.83
2018-02-22T18:31:21.647Z,27.53
2018-02-22T18:33:50.079Z,26.30
2018-02-22T18:36:18.436Z,30.30
2018-02-22T18:38:51.691Z,28.87
2018-02-22T18:41:19.360Z,31.63
2018-02-22T18:43:47.029Z,26.93
2018-02-22T18:46:14.823Z,28.90
2018-02-22T18:48:42.800Z,28.23
2018-02-22T18:51:10.688Z,32.70
2018-02-22T18:53:38.751Z,29.03
2018-02-22T18:56:06.749Z,35.73
2018-02-22T18:58:35.916Z,30.90
2018-02-22T19:01:05.883Z,30.87
2018-02-22T19:03:36.878Z,29.17
2018-02-22T19:06:04.870Z,27.73
2018-02-22T19:08:32.682Z,28.17
2018-02-22T19:11:00.662Z,27.23
2018-02-22T19:13:29.190Z,28.47
2018-02-22T19:15:57.063Z,29.83
2018-02-22T19:18:24.941Z,30.77
2018-02-22T19:20:52.882Z,30.13
2018-02-22T19:23:20.716Z,28.17
2018-02-22T19:25:48.716Z,27.63
2018-02-22T19:28:16.649Z,27.33
2018-02-22T19:30:44.565Z,28.93
2018-02-22T19:33:12.420Z,28.60
2018-02-22T19:35:40.263Z,28.50
2018-02-22T19:38:08.294Z,28.57
2018-02-22T19:40:36.895Z,25.80
2018-02-22T19:43:05.497Z,30.90
2018-02-22T19:45:33.297Z,28.03
2018-02-22T19:48:01.091Z,26.40
2018-02-22T19:50:29.017Z,29.93
2018-02-22T19:52:56.912Z,28.43
2018-02-22T19:55:24.912Z,27.27
2018-02-22T19:57:52.807Z,28.27
2018-02-22T20:00:20.756Z,28.07
2018-02-22T20:02:49.943Z,27.90
2018-02-22T20:05:17.758Z,29.80
2018-02-22T20:07:45.534Z,28.47
2018-02-22T20:10:13.268Z,27.80
2018-02-22T20:12:42.242Z,27.93
2018-02-22T20:15:10.134Z,28.17
2018-02-22T20:17:38.776Z,27.37
2018-02-22T20:20:06.741Z,25.97
2018-02-22T20:22:34.699Z,26.70
2018-02-22T20:25:02.648Z,27.60
2018-02-22T20:27:31.396Z,28.40
2018-02-22T20:29:59.279Z,27.20
2018-02-22T20:32:27.056Z,27.53
2018-02-22T20:34:55.106Z,26.53
2018-02-22T20:37:23.708Z,28.47
2018-02-22T20:39:51.416Z,27.30
2018-02-22T20:42:19.184Z,28.73
2018-02-22T20:44:46.982Z,28.87
2018-02-22T20:47:14.804Z,25.07
2018-02-22T20:49:42.791Z,26.40
2018-02-22T20:52:11.528Z,27.70
2018-02-22T20:54:39.304Z,27.30
2018-02-22T20:57:07.196Z,24.90
2018-02-22T20:59:35.076Z,41.93
2018-02-22T21:02:02.741Z,28.33
2018-02-22T21:04:32.059Z,23.60
2018-02-22T21:06:59.914Z,22.03
2018-02-22T21:09:28.480Z,22.03
2018-02-22T21:11:56.827Z,22.83
2018-02-22T21:14:24.624Z,24.47
2018-02-22T21:16:52.427Z,24.60
2018-02-22T21:19:21.322Z,25.27
2018-02-22T21:21:49.059Z,24.17
2018-02-22T21:24:17.587Z,26.30
2018-02-22T21:26:45.420Z,24.93
2018-02-22T21:29:13.184Z,24.00
2018-02-22T21:31:41.706Z,23.90
2018-02-22T21:34:09.592Z,22.73
2018-02-22T21:36:37.451Z,23.53
2018-02-22T21:39:05.271Z,23.57
2018-02-22T21:41:33.076Z,24.10
2018-02-22T21:44:00.968Z,24.07
2018-02-22T21:46:29.527Z,23.83
2018-02-22T21:48:57.440Z,23.07
2018-02-22T21:51:25.172Z,22.20
2018-02-22T21:53:53.206Z,23.07
2018-02-22T21:56:20.960Z,23.30
2018-02-22T21:58:48.791Z,23.87
2018-02-22T22:01:17.200Z,21.30
2018-02-22T22:03:44.876Z,22.30
2018-02-22T22:06:12.608Z,22.90
2018-02-22T22:08:40.279Z,25.10
2018-02-22T22:11:07.964Z,22.30
2018-02-22T22:13:35.684Z,22.20
2018-02-22T22:16:03.409Z,22.37
2018-02-22T22:18:31.222Z,23.87
2018-02-22T22:20:59.005Z,22.07
2018-02-22T22:23:27.496Z,24.60
2018-02-22T22:25:55.212Z,22.63
2018-02-22T22:28:22.993Z,21.37
2018-02-22T22:30:50.636Z,23.20
2018-02-22T22:33:18.353Z,25.43
2018-02-22T22:35:46.372Z,23.60
2018-02-22T22:38:14.071Z,24.20
2018-02-22T22:40:41.811Z,25.40
2018-02-22T22:43:09.645Z,25.00
2018-02-22T22:45:37.904Z,23.40
2018-02-22T22:48:05.864Z,24.63
2018-02-22T22:50:33.923Z,23.87
2018-02-22T22:53:01.948Z,23.63
2018-02-22T22:55:29.816Z,24.03
2018-02-22T22:57:57.959Z,24.33
2018-02-22T23:00:26.738Z,24.90
2018-02-22T23:02:55.573Z,25.37
2018-02-22T23:05:23.373Z,23.97
2018-02-22T23:07:51.201Z,23.57
2018-02-22T23:10:19.102Z,24.63
2018-02-22T23:12:47.819Z,23.50
2018-02-22T23:15:17.114Z,25.83
2018-02-22T23:17:45.736Z,23.60
2018-02-22T23:20:14.067Z,24.80
2018-02-22T23:22:43.097Z,24.60
2018-02-22T23:25:11.676Z,24.73
2018-02-22T23:27:39.376Z,24.60
2018-02-22T23:30:07.071Z,25.03
2018-02-22T23:32:34.801Z,25.17
2018-02-22T23:35:02.565Z,25.70
2018-02-22T23:37:31.097Z,25.57
2018-02-22T23:39:58.860Z,24.67
2018-02-22T23:42:27.214Z,24.97
2018-02-22T23:44:54.984Z,25.37
2018-02-22T23:47:22.735Z,24.97
2018-02-22T23:49:50.440Z,25.47
2018-02-22T23:52:18.268Z,25.10
2018-02-22T23:54:46.044Z,24.50
2018-02-22T23:57:13.712Z,26.60
2018-02-22T23:59:41.387Z,24.67
